createdAt,value
2022-09-15T00:02:14.524Z,97.70
2022-09-15T00:04:43.438Z,97.80
2022-09-15T00:07:12.827Z,97.70
2022-09-15T00:09:43.708Z,97.80
2022-09-15T00:12:12.069Z,97.70
2022-09-15T00:14:43.306Z,97.70
2022-09-15T00:17:12.211Z,97.60
2022-09-15T00:19:40.955Z,97.70
2022-09-15T00:22:14.376Z,97.70
2022-09-15T00:24:43.032Z,97.90
2022-09-15T00:27:14.552Z,97.70
2022-09-15T00:29:49.314Z,97.60
2022-09-15T00:32:22.798Z,97.70
2022-09-15T00:34:58.248Z,97.70
2022-09-15T00:37:27.493Z,97.70
2022-09-15T00:39:56.964Z,97.80
2022-09-15T00:42:28.564Z,97.80
2022-09-15T00:45:07.155Z,97.90
2022-09-15T00:47:46.225Z,97.90
2022-09-15T00:50:22.922Z,98.00
2022-09-15T00:53:02.209Z,98.00
2022-09-15T00:55:52.258Z,98.00
2022-09-15T00:58:35.339Z,98.00
2022-09-15T01:01:09.315Z,98.00
2022-09-15T01:03:43.730Z,97.90
2022-09-15T01:06:27.747Z,97.90
2022-09-15T01:09:20.193Z,97.90
2022-09-15T01:11:52.333Z,97.90
2022-09-15T01:14:35.648Z,97.90
2022-09-15T01:17:23.542Z,98.00
2022-09-15T01:20:18.078Z,98.00
2022-09-15T01:23:13.307Z,98.00
2022-09-15T01:26:00.242Z,98.00
2022-09-15T01:29:08.774Z,98.00
2022-09-15T01:32:02.981Z,98.00
2022-09-15T01:34:40.533Z,98.00
2022-09-15T01:37:15.550Z,98.00
2022-09-15T01:39:53.580Z,98.00
2022-09-15T01:42:25.085Z,98.10
2022-09-15T01:45:10.350Z,98.10
2022-09-15T01:47:45.461Z,98.10
2022-09-15T01:50:21.827Z,98.10
2022-09-15T01:53:03.943Z,98.10
2022-09-15T01:55:52.231Z,98.10
2022-09-15T01:58:22.581Z,98.20
2022-09-15T02:01:04.591Z,98.20
2022-09-15T02:04:05.686Z,98.20
2022-09-15T02:06:58.391Z,98.20
2022-09-15T02:09:35.057Z,98.20
2022-09-15T02:12:22.124Z,98.20
2022-09-15T02:15:09.578Z,98.20
2022-09-15T02:17:52.660Z,98.30
2022-09-15T02:20:42.716Z,98.30
2022-09-15T02:23:34.032Z,98.30
2022-09-15T02:26:20.081Z,98.40
2022-09-15T02:28:54.059Z,98.40
2022-09-15T02:31:28.043Z,98.40
2022-09-15T02:34:03.104Z,98.40
2022-09-15T02:36:38.510Z,98.40
2022-09-15T02:39:17.372Z,98.30
2022-09-15T02:41:46.802Z,98.30
2022-09-15T02:44:19.481Z,98.30
2022-09-15T02:46:47.970Z,98.40
2022-09-15T02:49:26.149Z,98.40
2022-09-15T02:51:55.741Z,98.40
2022-09-15T02:54:28.172Z,98.40
2022-09-15T02:57:00.673Z,98.50
2022-09-15T02:59:53.573Z,98.40
2022-09-15T03:02:24.557Z,98.40
2022-09-15T03:04:59.094Z,98.40
2022-09-15T03:07:29.523Z,98.40
2022-09-15T03:09:59.216Z,98.40
2022-09-15T03:12:28.034Z,98.50
2022-09-15T03:14:59.087Z,98.50
2022-09-15T03:17:28.446Z,98.50
2022-09-15T03:19:59.421Z,98.50
2022-09-15T03:22:31.514Z,98.70
2022-09-15T03:25:01.728Z,98.60
2022-09-15T03:27:34.779Z,98.60
2022-09-15T03:30:07.296Z,98.50
2022-09-15T03:32:36.784Z,98.50
2022-09-15T03:35:10.136Z,98.50
2022-09-15T03:37:43.041Z,98.50
2022-09-15T03:40:12.546Z,98.50
2022-09-15T03:42:42.100Z,98.50
2022-09-15T03:45:17.497Z,98.50
2022-09-15T03:47:48.894Z,98.50
2022-09-15T03:50:23.624Z,98.50
2022-09-15T03:52:56.797Z,98.50
2022-09-15T03:55:31.272Z,98.40
2022-09-15T03:58:02.919Z,98.50
2022-09-15T04:00:38.167Z,98.40
2022-09-15T04:03:13.103Z,98.40
2022-09-15T04:05:42.772Z,98.40
2022-09-15T04:08:20.495Z,98.40
2022-09-15T04:10:52.312Z,98.40
2022-09-15T04:13:27.981Z,98.40
2022-09-15T04:16:11.814Z,98.50
2022-09-15T04:18:45.089Z,98.60
2022-09-15T04:21:21.577Z,98.50
2022-09-15T04:23:51.847Z,98.60
2022-09-15T04:26:33.631Z,98.60
2022-09-15T04:29:08.839Z,98.60
2022-09-15T04:31:37.673Z,98.70
2022-09-15T04:34:07.562Z,98.70
2022-09-15T04:36:36.537Z,98.70
2022-09-15T04:39:07.205Z,98.70
2022-09-15T04:41:36.214Z,98.70
2022-09-15T04:44:08.238Z,98.80
2022-09-15T04:46:53.211Z,98.80
2022-09-15T04:49:22.693Z,98.90
2022-09-15T04:51:58.104Z,98.80
2022-09-15T04:54:29.715Z,98.70
2022-09-15T04:57:01.968Z,98.80
2022-09-15T04:59:36.569Z,98.80
2022-09-15T05:02:09.453Z,98.80
2022-09-15T05:04:41.392Z,98.90
2022-09-15T05:07:27.314Z,98.80
2022-09-15T05:10:02.243Z,98.80
2022-09-15T05:12:39.375Z,98.90
2022-09-15T05:15:12.394Z,98.80
2022-09-15T05:17:47.653Z,98.80
2022-09-15T05:20:19.493Z,98.80
2022-09-15T05:22:49.013Z,98.80
2022-09-15T05:25:17.560Z,98.80
2022-09-15T05:27:46.118Z,98.70
2022-09-15T05:33:12.503Z,98.70
2022-09-15T05:36:03.599Z,98.70
2022-09-15T05:38:36.576Z,98.60
2022-09-15T05:41:19.082Z,98.60
2022-09-15T05:43:57.380Z,98.60
2022-09-15T05:46:30.204Z,98.60
2022-09-15T05:49:05.201Z,98.80
2022-09-15T05:51:37.342Z,98.50
2022-09-15T05:54:09.064Z,98.50
2022-09-15T05:56:42.869Z,98.40
2022-09-15T05:59:17.144Z,98.40
2022-09-15T06:01:49.011Z,98.30
2022-09-15T06:04:18.352Z,98.20
2022-09-15T06:06:46.722Z,98.10
2022-09-15T06:09:16.355Z,98.00
2022-09-15T06:11:51.707Z,97.90
2022-09-15T06:14:23.143Z,97.90
2022-09-15T06:16:56.001Z,97.90
2022-09-15T06:19:26.964Z,97.80
2022-09-15T06:21:56.222Z,97.70
2022-09-15T06:24:28.457Z,97.70
2022-09-15T06:26:59.943Z,97.60
2022-09-15T06:29:33.071Z,97.50
2022-09-15T06:32:03.193Z,97.50
2022-09-15T06:34:36.098Z,97.30
2022-09-15T06:37:06.791Z,97.30
2022-09-15T06:39:38.329Z,97.20
2022-09-15T06:42:09.543Z,97.10
2022-09-15T06:44:43.894Z,97.00
2022-09-15T06:47:16.355Z,97.00
2022-09-15T06:49:46.181Z,96.90
2022-09-15T06:52:25.568Z,96.70
2022-09-15T06:54:54.542Z,96.60
2022-09-15T06:57:25.985Z,96.40
2022-09-15T06:59:57.495Z,96.40
2022-09-15T07:02:29.615Z,96.40
2022-09-15T07:05:02.361Z,96.30
2022-09-15T07:07:36.527Z,96.10
2022-09-15T07:10:06.008Z,96.10
2022-09-15T07:12:37.751Z,96.00
2022-09-15T07:15:10.341Z,95.90
2022-09-15T07:17:42.549Z,95.80
2022-09-15T07:20:15.185Z,95.30
2022-09-15T07:22:44.773Z,95.30
2022-09-15T07:25:16.424Z,94.90
2022-09-15T07:27:51.905Z,94.80
2022-09-15T07:30:24.129Z,94.80
2022-09-15T07:32:57.720Z,94.70
2022-09-15T07:35:26.396Z,94.60
2022-09-15T07:37:57.952Z,94.60
2022-09-15T07:40:31.987Z,94.50
2022-09-15T07:43:08.926Z,94.00
2022-09-15T07:45:42.472Z,94.00
2022-09-15T07:48:15.065Z,93.90
2022-09-15T07:50:50.635Z,93.80
2022-09-15T07:53:35.348Z,93.30
2022-09-15T07:56:09.973Z,93.50
2022-09-15T07:58:42.611Z,93.70
2022-09-15T08:01:12.754Z,93.70
2022-09-15T08:03:48.928Z,93.90
2022-09-15T08:06:26.541Z,93.60
2022-09-15T08:09:06.091Z,93.40
2022-09-15T08:11:45.215Z,93.30
2022-09-15T08:14:19.873Z,93.00
2022-09-15T08:16:54.918Z,92.60
2022-09-15T08:19:40.637Z,92.40
2022-09-15T08:22:18.844Z,92.40
2022-09-15T08:24:56.334Z,92.30
2022-09-15T08:27:30.811Z,92.20
2022-09-15T08:30:03.786Z,92.10
2022-09-15T08:32:36.405Z,91.90
2022-09-15T08:35:09.336Z,91.60
2022-09-15T08:37:38.451Z,91.50
2022-09-15T08:40:21.436Z,91.70
2022-09-15T08:43:32.867Z,91.40
2022-09-15T08:46:16.058Z,91.40
2022-09-15T08:48:54.727Z,91.10
2022-09-15T08:51:33.421Z,90.60
2022-09-15T08:54:31.566Z,90.50
2022-09-15T08:57:09.287Z,90.10
2022-09-15T08:59:40.964Z,90.30
2022-09-15T09:02:13.715Z,89.40
2022-09-15T09:05:20.178Z,89.20
2022-09-15T09:08:50.754Z,88.10
2022-09-15T09:11:51.764Z,87.50
2022-09-15T09:14:46.818Z,87.50
2022-09-15T09:17:20.053Z,86.50
2022-09-15T09:20:17.196Z,85.50
2022-09-15T09:22:55.240Z,84.00
2022-09-15T09:25:28.403Z,84.30
2022-09-15T09:27:59.182Z,84.80
2022-09-15T09:30:35.987Z,85.50
2022-09-15T09:33:32.842Z,85.00
2022-09-15T09:36:04.625Z,83.70
2022-09-15T09:38:48.055Z,83.70
2022-09-15T09:41:27.455Z,83.00
2022-09-15T09:44:00.760Z,82.20
2022-09-15T09:46:34.165Z,82.40
2022-09-15T09:49:25.918Z,82.60
2022-09-15T09:52:07.717Z,80.60
2022-09-15T09:54:45.529Z,79.80
2022-09-15T10:00:37.830Z,78.80
2022-09-15T10:03:29.417Z,76.70
2022-09-15T10:06:15.459Z,76.10
2022-09-15T10:09:20.011Z,75.90
2022-09-15T10:12:05.840Z,75.30
2022-09-15T10:14:57.264Z,75.50
2022-09-15T10:17:58.979Z,74.20
2022-09-15T10:20:46.419Z,74.70
2022-09-15T10:23:19.581Z,76.00
2022-09-15T10:26:00.398Z,76.30
2022-09-15T10:28:33.155Z,74.90
2022-09-15T10:31:14.205Z,72.30
2022-09-15T10:33:48.898Z,74.40
2022-09-15T10:36:32.843Z,75.40
2022-09-15T10:39:21.201Z,74.70
2022-09-15T10:42:37.849Z,75.60
2022-09-15T10:45:42.346Z,74.00
2022-09-15T10:48:30.564Z,75.90
2022-09-15T10:51:41.281Z,75.40
2022-09-15T10:54:55.107Z,74.40
2022-09-15T10:57:40.766Z,73.20
2022-09-15T11:00:14.026Z,73.70
2022-09-15T11:03:08.922Z,74.80
2022-09-15T11:06:01.794Z,74.70
2022-09-15T11:08:56.126Z,75.40
2022-09-15T11:12:00.999Z,75.30
2022-09-15T11:14:38.849Z,75.40
2022-09-15T11:17:45.843Z,75.60
2022-09-15T11:20:33.287Z,74.80
2022-09-15T11:23:24.270Z,75.30
2022-09-15T11:26:18.365Z,75.50
2022-09-15T11:29:26.380Z,75.70
2022-09-15T11:32:07.011Z,74.60
2022-09-15T11:34:59.519Z,75.00
2022-09-15T11:37:42.864Z,71.80
2022-09-15T11:40:37.074Z,71.40
2022-09-15T11:43:31.982Z,70.70
2022-09-15T11:46:12.168Z,70.00
2022-09-15T11:49:03.192Z,72.10
2022-09-15T11:52:02.033Z,72.30
2022-09-15T11:54:57.667Z,72.20
2022-09-15T11:57:35.525Z,72.90
2022-09-15T12:00:14.238Z,74.20
2022-09-15T12:03:36.680Z,73.40
2022-09-15T12:06:40.916Z,72.90
2022-09-15T12:09:28.052Z,73.40
2022-09-15T12:12:13.260Z,72.60
2022-09-15T12:14:47.886Z,72.00
2022-09-15T12:17:35.708Z,71.70
2022-09-15T12:20:50.910Z,72.50
2022-09-15T12:23:33.464Z,73.20
2022-09-15T12:26:23.594Z,72.90
2022-09-15T12:28:58.698Z,72.20
2022-09-15T12:31:39.547Z,72.70
2022-09-15T12:34:39.169Z,72.50
2022-09-15T12:37:18.925Z,71.70
2022-09-15T12:39:54.482Z,72.70
2022-09-15T12:42:39.094Z,72.40
2022-09-15T12:45:28.970Z,72.10
2022-09-15T12:48:06.300Z,71.00
2022-09-15T12:50:43.503Z,71.50
2022-09-15T12:53:26.680Z,71.00
2022-09-15T12:56:07.893Z,70.60
2022-09-15T12:58:54.514Z,71.00
2022-09-15T13:01:29.180Z,70.20
2022-09-15T13:04:05.125Z,71.90
2022-09-15T13:06:34.914Z,71.20
2022-09-15T13:09:08.463Z,71.70
2022-09-15T13:11:40.729Z,71.50
2022-09-15T13:14:38.572Z,71.00
2022-09-15T13:17:29.814Z,69.70
2022-09-15T13:20:03.743Z,68.20
2022-09-15T13:22:47.621Z,69.20
2022-09-15T13:25:23.642Z,69.30
2022-09-15T13:28:03.816Z,69.30
2022-09-15T13:31:10.682Z,69.10
2022-09-15T13:40:03.515Z,68.50
2022-09-15T13:43:07.062Z,67.50
2022-09-15T13:45:56.195Z,67.50
2022-09-15T13:48:56.273Z,66.60
2022-09-15T13:51:29.145Z,67.40
2022-09-15T13:54:22.225Z,68.30
2022-09-15T13:56:54.725Z,68.20
2022-09-15T13:59:30.526Z,68.90
2022-09-15T14:02:15.561Z,69.00
2022-09-15T14:04:56.669Z,69.50
2022-09-15T14:07:30.919Z,69.20
2022-09-15T14:10:07.441Z,69.70
2022-09-15T14:12:45.072Z,69.90
2022-09-15T14:15:21.863Z,70.00
2022-09-15T14:17:54.037Z,70.00
2022-09-15T14:20:36.385Z,70.20
2022-09-15T14:23:18.544Z,70.10
2022-09-15T14:26:01.162Z,70.30
2022-09-15T14:28:52.225Z,70.40
2022-09-15T14:31:40.766Z,70.60
2022-09-15T14:34:25.018Z,70.30
2022-09-15T14:37:08.157Z,70.60
2022-09-15T14:39:41.247Z,70.70
2022-09-15T14:42:25.834Z,71.00
2022-09-15T14:48:05.733Z,71.30
2022-09-15T14:50:36.040Z,71.20
2022-09-15T14:53:12.112Z,71.60
2022-09-15T14:56:10.186Z,71.50
2022-09-15T14:58:55.718Z,71.50
2022-09-15T15:01:43.018Z,71.90
2022-09-15T15:04:20.979Z,72.20
2022-09-15T15:07:19.586Z,72.70
2022-09-15T15:09:59.525Z,73.00
2022-09-15T15:12:54.440Z,73.10
2022-09-15T15:15:24.562Z,73.50
2022-09-15T15:17:58.198Z,73.70
2022-09-15T15:20:30.738Z,74.00
2022-09-15T15:23:14.450Z,74.20
2022-09-15T15:25:53.496Z,74.60
2022-09-15T15:28:40.135Z,74.70
2022-09-15T15:31:31.727Z,75.10
2022-09-15T15:34:10.153Z,75.50
2022-09-15T15:36:41.719Z,75.60
2022-09-15T15:39:27.988Z,75.90
2022-09-15T15:42:05.455Z,76.40
2022-09-15T15:45:05.480Z,76.30
2022-09-15T15:47:38.004Z,76.80
2022-09-15T15:50:14.749Z,77.30
2022-09-15T15:53:01.918Z,77.40
2022-09-15T15:55:47.069Z,77.70
2022-09-15T15:58:19.476Z,78.00
2022-09-15T16:01:00.194Z,78.20
2022-09-15T16:03:37.461Z,78.60
2022-09-15T16:06:12.509Z,78.60
2022-09-15T16:08:46.067Z,78.80
2022-09-15T16:11:22.189Z,79.10
2022-09-15T16:13:54.458Z,79.00
2022-09-15T16:16:27.582Z,79.30
2022-09-15T16:19:02.783Z,79.30
2022-09-15T16:21:40.931Z,79.20
2022-09-15T16:24:20.680Z,79.10
2022-09-15T16:26:55.139Z,79.10
2022-09-15T16:29:28.554Z,78.70
2022-09-15T16:32:00.704Z,78.90
2022-09-15T16:34:32.118Z,78.80
2022-09-15T16:37:02.055Z,79.00
2022-09-15T16:39:31.932Z,79.30
2022-09-15T16:42:03.163Z,79.50
2022-09-15T16:44:32.424Z,79.30
2022-09-15T16:47:06.041Z,79.80
2022-09-15T16:49:39.963Z,79.80
2022-09-15T16:52:16.353Z,79.80
2022-09-15T16:54:56.940Z,79.80
2022-09-15T16:57:30.009Z,80.00
2022-09-15T16:59:59.023Z,80.10
2022-09-15T17:02:28.901Z,80.30
2022-09-15T17:05:00.336Z,80.50
2022-09-15T17:07:29.075Z,80.50
2022-09-15T17:10:00.587Z,80.80
2022-09-15T17:12:30.076Z,81.10
2022-09-15T17:14:59.125Z,81.30
2022-09-15T17:17:27.708Z,81.30
2022-09-15T17:19:58.247Z,81.60
2022-09-15T17:22:29.843Z,81.80
2022-09-15T17:25:35.415Z,82.00
2022-09-15T17:28:14.805Z,82.70
2022-09-15T17:30:43.447Z,83.00
2022-09-15T17:33:15.065Z,83.80
2022-09-15T17:35:43.886Z,84.30
2022-09-15T17:38:16.453Z,84.20
2022-09-15T17:40:52.735Z,84.60
2022-09-15T17:43:24.279Z,84.60
2022-09-15T17:45:54.356Z,84.60
2022-09-15T17:48:25.736Z,84.90
2022-09-15T17:51:04.457Z,84.70
2022-09-15T17:53:33.380Z,84.60
2022-09-15T17:56:06.035Z,84.90
2022-09-15T17:58:42.374Z,85.00
2022-09-15T18:01:16.138Z,85.30
2022-09-15T18:03:45.902Z,85.40
2022-09-15T18:06:18.377Z,85.60
2022-09-15T18:08:49.812Z,85.70
2022-09-15T18:11:19.295Z,85.70
2022-09-15T18:13:48.378Z,85.70
2022-09-15T18:16:17.170Z,85.70
2022-09-15T18:18:47.931Z,85.20
2022-09-15T18:21:29.679Z,85.20
2022-09-15T18:24:04.450Z,85.20
2022-09-15T18:26:33.183Z,85.10
2022-09-15T18:29:05.883Z,84.90
2022-09-15T18:31:40.257Z,84.80
2022-09-15T18:34:12.446Z,84.90
2022-09-15T18:36:41.319Z,84.90
2022-09-15T18:39:21.343Z,84.70
2022-09-15T18:41:50.605Z,84.70
2022-09-15T18:44:26.085Z,84.70
2022-09-15T18:47:05.862Z,84.30
2022-09-15T18:49:35.847Z,84.40
2022-09-15T18:52:05.689Z,84.20
2022-09-15T18:54:36.623Z,83.90
2022-09-15T18:57:08.756Z,83.80
2022-09-15T18:59:37.756Z,83.30
2022-09-15T19:02:14.816Z,83.20
2022-09-15T19:04:44.771Z,83.00
2022-09-15T19:07:17.355Z,82.60
2022-09-15T19:09:45.992Z,82.40
2022-09-15T19:12:14.745Z,82.30
2022-09-15T19:14:52.998Z,82.30
2022-09-15T19:17:25.448Z,82.60
2022-09-15T19:20:04.254Z,82.70
2022-09-15T19:22:32.942Z,82.70
2022-09-15T19:25:10.715Z,82.90
2022-09-15T19:27:42.256Z,83.10
2022-09-15T19:30:22.558Z,83.20
2022-09-15T19:32:57.956Z,83.20
2022-09-15T19:35:34.864Z,83.50
2022-09-15T19:38:06.249Z,83.60
2022-09-15T19:40:34.757Z,83.30
2022-09-15T19:43:12.433Z,83.30
2022-09-15T19:45:47.417Z,83.50
2022-09-15T19:48:27.547Z,83.20
2022-09-15T19:50:58.442Z,83.40
2022-09-15T19:53:27.345Z,83.50
2022-09-15T19:55:59.079Z,83.60
2022-09-15T19:58:31.507Z,83.60
2022-09-15T20:01:09.393Z,83.70
2022-09-15T20:06:28.980Z,83.90
2022-09-15T20:09:02.739Z,84.10
2022-09-15T20:11:35.628Z,84.40
2022-09-15T20:14:10.190Z,84.60
2022-09-15T20:16:50.784Z,85.00
2022-09-15T20:19:20.458Z,85.30
2022-09-15T20:21:51.808Z,85.50
2022-09-15T20:24:24.049Z,85.70
2022-09-15T20:26:55.726Z,85.90
2022-09-15T20:29:25.104Z,86.10
2022-09-15T20:32:08.515Z,86.30
2022-09-15T20:34:39.828Z,86.70
2022-09-15T20:37:08.961Z,86.80
2022-09-15T20:39:43.790Z,86.90
2022-09-15T20:42:12.852Z,87.00
2022-09-15T20:44:41.926Z,87.20
2022-09-15T20:47:11.337Z,87.50
2022-09-15T20:49:40.474Z,87.60
2022-09-15T20:52:10.252Z,87.80
2022-09-15T20:54:38.646Z,87.80
2022-09-15T20:57:07.945Z,88.00
2022-09-15T20:59:38.215Z,88.00
2022-09-15T21:02:08.030Z,87.90
2022-09-15T21:04:39.342Z,88.10
2022-09-15T21:07:14.855Z,88.10
2022-09-15T21:09:45.078Z,88.10
2022-09-15T21:12:18.708Z,88.10
2022-09-15T21:14:47.370Z,88.10
2022-09-15T21:17:20.284Z,88.40
2022-09-15T21:19:52.636Z,88.40
2022-09-15T21:22:21.564Z,88.60
2022-09-15T21:24:50.347Z,88.70
2022-09-15T21:27:30.905Z,88.80
2022-09-15T21:29:59.915Z,89.00
2022-09-15T21:32:35.729Z,89.10
2022-09-15T21:35:06.192Z,89.30
2022-09-15T21:37:34.893Z,89.30
2022-09-15T21:40:07.246Z,89.40
2022-09-15T21:42:35.991Z,89.60
2022-09-15T21:45:06.210Z,89.80
2022-09-15T21:47:34.828Z,89.90
2022-09-15T21:50:04.039Z,89.90
2022-09-15T21:52:38.053Z,90.00
2022-09-15T21:55:07.444Z,89.90
2022-09-15T21:57:37.151Z,90.00
2022-09-15T22:00:08.943Z,90.00
2022-09-15T22:02:38.896Z,90.10
2022-09-15T22:05:07.826Z,90.20
2022-09-15T22:07:40.735Z,90.10
2022-09-15T22:10:15.226Z,90.10
2022-09-15T22:12:44.740Z,90.20
2022-09-15T22:15:21.088Z,90.30
2022-09-15T22:17:51.325Z,90.30
2022-09-15T22:20:26.084Z,90.40
2022-09-15T22:23:01.805Z,90.50
2022-09-15T22:25:30.896Z,90.50
2022-09-15T22:27:59.963Z,90.60
2022-09-15T22:30:34.534Z,90.70
2022-09-15T22:33:03.805Z,90.70
2022-09-15T22:35:32.895Z,90.80
2022-09-15T22:38:04.037Z,90.90
2022-09-15T22:40:36.406Z,90.90
2022-09-15T22:43:08.375Z,90.80
2022-09-15T22:45:39.782Z,90.90
2022-09-15T22:48:11.604Z,90.90
2022-09-15T22:50:44.072Z,91.00
2022-09-15T22:53:21.624Z,90.90
2022-09-15T22:56:26.876Z,90.90
2022-09-15T22:59:04.288Z,91.10
2022-09-15T23:01:37.738Z,90.90
2022-09-15T23:04:06.858Z,91.00
2022-09-15T23:06:41.486Z,91.00
2022-09-15T23:09:13.196Z,91.00
2022-09-15T23:11:45.420Z,91.10
2022-09-15T23:14:18.241Z,91.20
2022-09-15T23:16:54.355Z,91.30
2022-09-15T23:19:23.031Z,91.40
2022-09-15T23:21:54.864Z,91.40
2022-09-15T23:24:24.412Z,91.40
2022-09-15T23:26:57.384Z,91.50
2022-09-15T23:29:26.708Z,91.60
2022-09-15T23:31:58.257Z,91.60
2022-09-15T23:34:26.449Z,91.70
2022-09-15T23:36:54.837Z,91.70
2022-09-15T23:39:24.515Z,91.80
2022-09-15T23:41:56.274Z,91.80
2022-09-15T23:44:28.020Z,91.90
2022-09-15T23:46:58.618Z,92.00
2022-09-15T23:49:30.123Z,92.00
2022-09-15T23:52:02.399Z,92.20
2022-09-15T23:54:32.272Z,92.10
2022-09-15T23:57:07.050Z,92.10
2022-09-15T23:59:38.538Z,92.30
